Time;durP1;ratioP1;P1;durP2;ratioP2;P2;SDS_P1;SDS_P2;PMS_P1;PMS_P2;Temp;Humidity;BMP_temperature;BMP_pressure;BME280_temperature;BME280_humidity;BME280_pressure;Samples;Min_cycle;Max_cycle;Signal;HPM_P1;HPM_P2
2023/09/03 00:01:49;;;;;;;21.98;3.70;;;;;;;17.95;100.00;101589.09;5080292;28;20032;-73
2023/09/03 00:04:14;;;;;;;21.40;3.97;;;;;;;18.00;100.00;101594.69;5080741;28;20130;-73
2023/09/03 00:06:40;;;;;;;17.98;4.35;;;;;;;17.98;100.00;101592.19;5083697;28;20028;-73
2023/09/03 00:09:05;;;;;;;24.30;3.78;;;;;;;18.00;100.00;101587.31;5066072;28;20028;-73
2023/09/03 00:11:30;;;;;;;28.60;4.05;;;;;;;17.87;100.00;101564.88;5083105;28;20039;-73
2023/09/03 00:13:56;;;;;;;28.52;4.20;;;;;;;17.95;100.00;101580.94;5099938;28;20028;-73
2023/09/03 00:16:22;;;;;;;21.95;3.80;;;;;;;17.90;100.00;101575.31;5080316;28;20024;-73
2023/09/03 00:18:47;;;;;;;23.92;4.18;;;;;;;17.91;100.00;101576.97;5080102;28;20035;-73
2023/09/03 00:21:13;;;;;;;17.35;3.40;;;;;;;17.90;100.00;101580.78;5096867;28;20089;-73
2023/09/03 00:23:38;;;;;;;19.65;3.67;;;;;;;17.86;100.00;101576.84;5096567;28;20028;-73
2023/09/03 00:26:03;;;;;;;26.60;4.00;;;;;;;17.87;100.00;101590.22;5096674;28;20032;-73
2023/09/03 00:28:29;;;;;;;24.13;4.57;;;;;;;17.86;100.00;101588.56;5063277;28;20088;-73
2023/09/03 00:31:05;;;;;;;22.73;4.20;;;;;;;17.78;100.00;101581.56;5113789;28;20490;-73
2023/09/03 00:33:31;;;;;;;25.17;4.32;;;;;;;17.81;100.00;101600.16;5080505;28;20021;-74
2023/09/03 00:35:58;;;;;;;17.15;3.53;;;;;;;17.67;100.00;101597.75;5080350;28;20031;-73
2023/09/03 00:38:24;;;;;;;21.85;3.92;;;;;;;17.67;100.00;101603.22;5078345;28;20033;-73
2023/09/03 00:40:49;;;;;;;21.00;3.83;;;;;;;17.64;100.00;101599.03;5058246;28;20036;-73
2023/09/03 00:43:15;;;;;;;25.00;4.32;;;;;;;17.59;100.00;101585.31;5095291;28;20028;-73
2023/09/03 00:45:42;;;;;;;17.98;3.83;;;;;;;17.61;100.00;101594.06;5079439;28;20467;-73
2023/09/03 00:48:09;;;;;;;17.38;3.90;;;;;;;17.59;100.00;101590.75;5082071;28;20055;-73
2023/09/03 00:50:36;;;;;;;20.77;3.80;;;;;;;17.55;100.00;101584.09;5084359;28;20063;-74
2023/09/03 00:53:02;;;;;;;19.00;4.40;;;;;;;17.56;100.00;101596.63;5083078;28;20129;-73
2023/09/03 00:55:29;;;;;;;28.95;4.22;;;;;;;17.56;100.00;101605.63;5084498;28;20040;-73
2023/09/03 00:57:55;;;;;;;29.17;3.78;;;;;;;17.54;100.00;101605.00;5083575;28;20020;-73
2023/09/03 01:00:21;;;;;;;26.58;4.72;;;;;;;17.51;100.00;101610.06;5083170;28;20156;-74
2023/09/03 01:02:48;;;;;;;28.60;3.95;;;;;;;17.50;100.00;101614.69;5116221;28;20059;-73
2023/09/03 01:05:14;;;;;;;22.73;4.18;;;;;;;17.51;100.00;101613.63;5080502;28;20036;-73
2023/09/03 01:07:40;;;;;;;20.48;4.00;;;;;;;17.52;100.00;101617.19;5078446;28;20033;-73
2023/09/03 01:10:06;;;;;;;19.70;4.13;;;;;;;17.49;100.00;101614.94;5079614;28;20464;-73
2023/09/03 01:13:12;;;;;;;23.50;4.75;;;;;;;17.54;100.00;101598.75;5067215;28;20039;-73
2023/09/03 01:15:43;;;;;;;19.45;3.65;;;;;;;17.42;100.00;101592.38;5082787;28;20047;-73
2023/09/03 01:18:11;;;;;;;21.83;3.88;;;;;;;17.48;100.00;101589.63;5083917;28;20020;-73
2023/09/03 01:20:48;;;;;;;17.73;3.85;;;;;;;17.50;100.00;101592.09;5083865;28;20016;-73
2023/09/03 01:23:28;;;;;;;24.33;3.88;;;;;;;17.51;100.00;101594.56;5082547;28;20046;-74
2023/09/03 01:26:20;;;;;;;20.75;4.18;;;;;;;17.55;100.00;101611.31;5083030;28;20498;-73
2023/09/03 01:28:47;;;;;;;21.90;3.75;;;;;;;17.48;100.00;101614.09;5082498;28;20533;-73
2023/09/03 01:31:16;;;;;;;19.65;3.55;;;;;;;17.41;100.00;101598.88;5097687;28;20032;-73
2023/09/03 01:33:44;;;;;;;17.85;3.58;;;;;;;17.56;100.00;101627.41;5115934;28;20032;-73
2023/09/03 01:36:11;;;;;;;18.77;4.03;;;;;;;17.46;100.00;101612.66;5080538;28;20027;-73
2023/09/03 01:38:38;;;;;;;23.38;4.10;;;;;;;17.49;100.00;101628.53;5080754;28;20039;-73
2023/09/03 01:41:04;;;;;;;19.75;3.70;;;;;;;17.57;100.00;101644.56;5082750;28;20024;-73
2023/09/03 01:43:30;;;;;;;21.63;4.38;;;;;;;17.48;100.00;101643.16;5081383;28;20437;-73
2023/09/03 01:45:55;;;;;;;20.13;4.13;;;;;;;17.56;100.00;101645.63;5083265;28;20167;-73
2023/09/03 01:48:54;;;;;;;22.60;4.03;;;;;;;17.52;100.00;101642.53;5083128;28;20031;-73
2023/09/03 01:51:23;;;;;;;26.65;3.90;;;;;;;17.52;100.00;101647.97;5083305;28;20036;-73
2023/09/03 01:54:02;;;;;;;18.65;3.97;;;;;;;17.51;100.00;101648.16;5094700;28;20070;-74
2023/09/03 01:56:33;;;;;;;19.77;3.90;;;;;;;17.55;100.00;101643.97;5094128;28;20056;-73
2023/09/03 01:59:16;;;;;;;16.75;4.03;;;;;;;17.58;100.00;101638.03;5092953;28;20039;-73
2023/09/03 02:01:44;;;;;;;19.50;3.80;;;;;;;17.56;100.00;101638.28;5081568;28;20043;-73
2023/09/03 02:04:10;;;;;;;23.98;4.50;;;;;;;17.53;100.00;101632.47;5082387;28;20024;-73
2023/09/03 02:06:35;;;;;;;24.50;4.47;;;;;;;17.56;100.00;101624.69;5082154;28;20028;-73
2023/09/03 02:09:00;;;;;;;18.85;3.70;;;;;;;17.62;100.00;101628.41;5080086;28;20036;-73
2023/09/03 02:11:26;;;;;;;19.17;3.72;;;;;;;17.64;100.00;101625.44;5081138;28;20115;-73
2023/09/03 02:13:51;;;;;;;24.63;3.55;;;;;;;17.70;100.00;101635.41;5080511;28;20029;-74
2023/09/03 02:16:16;;;;;;;26.33;4.63;;;;;;;17.81;100.00;101638.25;5080597;28;20024;-73
2023/09/03 02:18:42;;;;;;;18.88;4.32;;;;;;;17.83;100.00;101646.19;5073241;28;20057;-73
2023/09/03 02:21:07;;;;;;;22.42;4.18;;;;;;;17.78;100.00;101651.47;5086116;28;20029;-73
2023/09/03 02:23:32;;;;;;;30.63;4.18;;;;;;;17.66;100.00;101645.94;5091554;28;20109;-73
2023/09/03 02:26:02;;;;;;;23.65;4.10;;;;;;;17.75;100.00;101665.53;5103117;28;20032;-74
2023/09/03 02:28:28;;;;;;;19.55;4.03;;;;;;;17.66;100.00;101659.53;5100906;28;20020;-73
2023/09/03 02:30:53;;;;;;;17.73;4.07;;;;;;;17.53;100.00;101643.34;5064179;28;20059;-73
2023/09/03 02:33:19;;;;;;;18.30;4.03;;;;;;;17.69;100.00;101667.25;5095821;28;20496;-73
2023/09/03 02:35:45;;;;;;;19.00;3.67;;;;;;;17.68;100.00;101665.59;5094982;28;20024;-73
2023/09/03 02:38:10;;;;;;;18.77;3.80;;;;;;;17.68;100.00;101662.88;5095994;28;20039;-73
2023/09/03 02:40:37;;;;;;;19.52;3.67;;;;;;;17.64;100.00;101652.66;5096645;28;20119;-73
2023/09/03 02:43:04;;;;;;;20.13;4.18;;;;;;;17.58;100.00;101643.50;5101779;28;20027;-73
2023/09/03 02:45:29;;;;;;;20.20;4.13;;;;;;;17.66;100.00;101662.25;5083324;28;20024;-73
2023/09/03 02:47:54;;;;;;;17.73;3.88;;;;;;;17.68;100.00;101653.84;5081558;28;20033;-73
2023/09/03 02:50:20;;;;;;;19.83;4.28;;;;;;;17.70;100.00;101643.59;5081962;28;20027;-73
2023/09/03 02:52:45;;;;;;;20.45;3.92;;;;;;;17.74;100.00;101647.50;5086199;28;20052;-73
2023/09/03 02:55:12;;;;;;;14.40;3.53;;;;;;;17.77;100.00;101644.38;5086447;28;20040;-73
2023/09/03 02:57:38;;;;;;;23.75;4.20;;;;;;;17.62;100.00;101617.50;5071005;28;20055;-73
2023/09/03 03:00:04;;;;;;;14.00;3.60;;;;;;;17.64;100.00;101628.16;5086977;28;20088;-73
2023/09/03 03:02:29;;;;;;;18.23;3.88;;;;;;;17.57;100.00;101620.88;5085895;28;20037;-73
2023/09/03 03:04:55;;;;;;;21.42;4.50;;;;;;;17.40;100.00;101602.66;5084174;28;20025;-73
2023/09/03 03:07:20;;;;;;;20.65;4.15;;;;;;;17.51;100.00;101626.41;5081984;28;20033;-74
2023/09/03 03:09:50;;;;;;;22.83;4.82;;;;;;;17.65;100.00;101643.41;5064569;28;20123;-73
2023/09/03 03:12:15;;;;;;;21.23;3.88;;;;;;;17.59;100.00;101654.16;5081872;28;20032;-73
2023/09/03 03:14:41;;;;;;;19.02;3.60;;;;;;;17.55;100.00;101660.28;5078837;28;20040;-73
2023/09/03 03:17:06;;;;;;;28.40;4.57;;;;;;;17.54;100.00;101664.06;5080100;28;20043;-73
2023/09/03 03:19:32;;;;;;;17.92;3.88;;;;;;;17.50;100.00;101671.00;5087265;28;20024;-73
2023/09/03 03:21:57;;;;;;;18.52;3.90;;;;;;;17.48;100.00;101670.38;5089537;28;20029;-73
2023/09/03 03:24:23;;;;;;;20.10;4.00;;;;;;;17.44;100.00;101658.28;5083783;28;20028;-73
2023/09/03 03:26:48;;;;;;;16.95;3.88;;;;;;;17.50;100.00;101669.13;5084414;28;20039;-73
2023/09/03 03:29:14;;;;;;;14.00;3.83;;;;;;;17.53;100.00;101678.72;5099531;28;20027;-73
2023/09/03 03:31:42;;;;;;;22.70;4.30;;;;;;;17.52;100.00;101677.06;5078749;28;20032;-73
2023/09/03 03:34:07;;;;;;;15.65;3.72;;;;;;;17.48;100.00;101681.25;5079271;28;20016;-73
2023/09/03 03:36:33;;;;;;;14.85;3.92;;;;;;;17.50;100.00;101680.00;5079511;28;20435;-73
2023/09/03 03:38:59;;;;;;;17.73;4.00;;;;;;;17.48;100.00;101682.13;5079590;28;20501;-73
2023/09/03 03:41:24;;;;;;;18.88;4.00;;;;;;;17.47;100.00;101685.88;5095536;28;20028;-73
2023/09/03 03:43:50;;;;;;;17.75;4.07;;;;;;;17.51;100.00;101699.88;5082916;28;20502;-73
2023/09/03 03:46:17;;;;;;;20.20;3.65;;;;;;;17.45;100.00;101679.00;5078595;28;20029;-73
2023/09/03 03:48:43;;;;;;;17.83;4.00;;;;;;;17.60;100.00;101703.97;5080933;28;20054;-73
2023/09/03 03:51:09;;;;;;;15.10;3.45;;;;;;;17.51;100.00;101689.00;5079267;28;20041;-73
2023/09/03 03:53:35;;;;;;;16.23;3.60;;;;;;;17.58;100.00;101700.63;5088927;28;20057;-73
2023/09/03 03:56:02;;;;;;;13.10;3.53;;;;;;;17.59;100.00;101691.44;5106437;28;20042;-73
2023/09/03 03:58:30;;;;;;;12.32;3.80;;;;;;;17.59;100.00;101689.53;5106622;28;20048;-73
2023/09/03 04:00:56;;;;;;;17.77;3.83;;;;;;;17.57;100.00;101685.38;5106105;28;20016;-73
2023/09/03 04:03:22;;;;;;;18.92;3.90;;;;;;;17.64;100.00;101694.31;5105250;28;20056;-73
2023/09/03 04:06:02;;;;;;;14.95;3.70;;;;;;;17.69;100.00;101696.38;5087836;28;20050;-73
2023/09/03 04:08:32;;;;;;;14.00;3.50;;;;;;;17.50;100.00;101671.00;5090517;28;20040;-73
2023/09/03 04:10:59;;;;;;;15.25;3.67;;;;;;;17.61;100.00;101681.13;5084590;28;20036;-73
2023/09/03 04:13:29;;;;;;;14.73;3.38;;;;;;;17.54;100.00;101669.50;5084709;28;20093;-73
2023/09/03 04:15:56;;;;;;;17.15;3.80;;;;;;;17.68;100.00;101692.81;5068112;28;20046;-73
2023/09/03 04:18:23;;;;;;;16.77;3.50;;;;;;;17.73;100.00;101695.69;5083083;28;20055;-73
2023/09/03 04:20:52;;;;;;;10.90;3.40;;;;;;;17.77;100.00;101693.38;5088535;28;20255;-72
2023/09/03 04:23:18;;;;;;;15.70;3.55;;;;;;;17.77;100.00;101702.38;5091665;28;20373;-73
2023/09/03 04:25:43;;;;;;;17.40;3.72;;;;;;;17.73;100.00;101703.84;5101852;28;20035;-73
2023/09/03 04:28:09;;;;;;;11.60;3.33;;;;;;;17.77;100.00;101707.81;5101437;28;20489;-72
2023/09/03 04:30:38;;;;;;;11.65;3.10;;;;;;;17.72;100.00;101685.88;5114794;28;20042;-73
2023/09/03 04:33:06;;;;;;;11.32;3.13;;;;;;;17.96;100.00;101700.50;5115647;28;20041;-73
2023/09/03 04:35:31;;;;;;;11.68;3.03;;;;;;;18.27;100.00;101701.41;5118398;28;20024;-73
2023/09/03 04:37:57;;;;;;;11.77;2.92;;;;;;;18.46;100.00;101692.13;5118864;28;20058;-73
2023/09/03 04:40:22;;;;;;;13.43;3.10;;;;;;;18.36;100.00;101697.31;5115008;28;20024;-73
2023/09/03 04:42:48;;;;;;;12.85;2.95;;;;;;;18.41;100.00;101712.94;5116493;28;20012;-73
2023/09/03 04:45:14;;;;;;;15.07;3.47;;;;;;;18.44;100.00;101709.78;5102093;28;20026;-73
2023/09/03 04:47:39;;;;;;;12.20;3.50;;;;;;;18.36;100.00;101707.38;5121044;28;20478;-73
2023/09/03 04:50:05;;;;;;;12.20;2.80;;;;;;;18.31;100.00;101714.34;5128891;28;20043;-73
2023/09/03 04:52:30;;;;;;;12.98;2.90;;;;;;;18.26;100.00;101716.91;5129005;28;20103;-73
2023/09/03 04:54:56;;;;;;;14.30;2.97;;;;;;;18.19;100.00;101721.63;5130335;28;20122;-73
2023/09/03 04:57:21;;;;;;;11.27;3.17;;;;;;;18.06;100.00;101708.16;5105746;28;20548;-73
2023/09/03 04:59:46;;;;;;;18.27;3.97;;;;;;;18.04;100.00;101697.47;5122971;28;20035;-73
2023/09/03 05:02:12;;;;;;;12.52;2.75;;;;;;;18.11;100.00;101718.34;5112850;28;20749;-73
2023/09/03 05:04:37;;;;;;;14.98;3.17;;;;;;;18.21;100.00;101724.09;5088036;28;20036;-75
2023/09/03 05:07:04;;;;;;;12.43;3.20;;;;;;;18.20;100.00;101720.53;5103412;28;20047;-75
2023/09/03 05:09:30;;;;;;;11.77;3.20;;;;;;;18.14;100.00;101718.72;5095610;28;20035;-74
2023/09/03 05:11:56;;;;;;;12.75;2.60;;;;;;;18.34;100.00;101723.09;5065119;28;20033;-71
2023/09/03 05:14:21;;;;;;;14.23;3.00;;;;;;;18.35;100.00;101725.63;5087157;28;20054;-73
2023/09/03 05:16:47;;;;;;;12.68;2.90;;;;;;;18.37;100.00;101722.66;5107710;28;20032;-78
2023/09/03 05:19:14;;;;;;;11.85;3.92;;;;;;;18.39;100.00;101723.28;5098761;28;20034;-74
2023/09/03 05:21:41;;;;;;;7.47;2.47;;;;;;;18.40;100.00;101719.47;5115056;28;20023;-72
2023/09/03 05:24:07;;;;;;;12.82;3.10;;;;;;;18.44;100.00;101726.97;5106303;28;20020;-72
2023/09/03 05:26:32;;;;;;;11.15;3.08;;;;;;;18.47;100.00;101722.94;5106064;28;20038;-75
2023/09/03 05:28:58;;;;;;;13.45;3.35;;;;;;;18.51;100.00;101733.19;5086489;28;20027;-74
2023/09/03 05:31:23;;;;;;;15.77;3.30;;;;;;;18.56;100.00;101735.19;5109821;28;20020;-71
2023/09/03 05:33:48;;;;;;;12.05;2.80;;;;;;;18.59;100.00;101734.75;5113215;28;20024;-73
2023/09/03 05:36:14;;;;;;;12.93;3.35;;;;;;;18.64;100.00;101731.31;5107665;28;20035;-73
2023/09/03 05:38:42;;;;;;;9.00;2.65;;;;;;;18.65;100.00;101731.09;5089134;28;20020;-75
2023/09/03 05:41:09;;;;;;;14.15;3.08;;;;;;;18.70;100.00;101733.94;5106456;28;20091;-74
2023/09/03 05:43:35;;;;;;;10.70;3.03;;;;;;;18.75;100.00;101736.03;5106204;28;20032;-75
2023/09/03 05:46:00;;;;;;;9.65;3.22;;;;;;;18.76;100.00;101730.34;5089224;28;20032;-75
2023/09/03 05:48:25;;;;;;;13.18;2.47;;;;;;;18.84;100.00;101750.16;5106907;28;20024;-74
2023/09/03 05:51:05;;;;;;;7.70;2.50;;;;;;;18.87;100.00;101744.25;5072518;28;20069;-73
2023/09/03 05:53:32;;;;;;;10.73;2.53;;;;;;;18.82;100.00;101746.84;5105635;28;20055;-73
2023/09/03 05:56:12;;;;;;;7.43;2.80;;;;;;;18.97;100.00;101769.06;5106631;28;20066;-72
2023/09/03 05:58:38;;;;;;;11.32;2.92;;;;;;;18.98;100.00;101778.94;5102945;28;20088;-73
2023/09/03 06:01:09;;;;;;;11.88;2.90;;;;;;;19.08;100.00;101778.38;5100823;28;20388;-72
2023/09/03 06:03:35;;;;;;;14.63;3.20;;;;;;;19.06;100.00;101761.41;5083560;28;20114;-72
2023/09/03 06:06:05;;;;;;;13.30;2.80;;;;;;;19.04;100.00;101774.44;5100402;28;20031;-73
2023/09/03 06:08:32;;;;;;;12.77;2.72;;;;;;;19.02;100.00;101766.50;5099651;28;20040;-74
2023/09/03 06:10:59;;;;;;;12.18;2.80;;;;;;;19.18;100.00;101781.38;5100746;28;20061;-74
2023/09/03 06:13:26;;;;;;;10.07;2.58;;;;;;;19.22;100.00;101775.22;5101452;28;20081;-71
2023/09/03 06:15:51;;;;;;;11.90;2.60;;;;;;;19.19;100.00;101763.94;5093849;28;20032;-71
2023/09/03 06:18:17;;;;;;;16.05;2.80;;;;;;;19.36;100.00;101777.72;5086628;28;20459;-71
2023/09/03 06:20:42;;;;;;;11.25;2.72;;;;;;;19.40;100.00;101768.00;5092682;28;20058;-71
2023/09/03 06:23:09;;;;;;;9.52;2.92;;;;;;;19.46;100.00;101770.63;5078543;28;20493;-71
2023/09/03 06:25:35;;;;;;;10.57;3.00;;;;;;;19.48;100.00;101763.03;5072446;28;20051;-71
2023/09/03 06:28:00;;;;;;;12.40;3.00;;;;;;;19.61;100.00;101769.38;5088095;28;20068;-71
2023/09/03 06:30:25;;;;;;;13.85;3.13;;;;;;;19.67;100.00;101782.94;5098942;28;20043;-71
2023/09/03 06:32:51;;;;;;;10.68;2.53;;;;;;;19.73;100.00;101781.13;5109353;28;20043;-71
2023/09/03 06:35:16;;;;;;;7.68;2.80;;;;;;;19.79;100.00;101782.94;5112621;28;20051;-71
2023/09/03 06:37:42;;;;;;;11.98;3.00;;;;;;;19.82;100.00;101781.63;5091039;28;20064;-71
2023/09/03 06:40:08;;;;;;;11.70;3.20;;;;;;;19.90;100.00;101782.13;5088923;28;20102;-71
2023/09/03 06:42:34;;;;;;;11.73;2.97;;;;;;;19.97;100.00;101782.00;5080797;28;20028;-71
2023/09/03 06:44:59;;;;;;;13.18;2.95;;;;;;;20.04;100.00;101779.97;5081100;28;20521;-71
2023/09/03 06:47:25;;;;;;;8.60;2.55;;;;;;;20.10;100.00;101791.84;5081477;28;20036;-71
2023/09/03 06:49:51;;;;;;;9.38;2.88;;;;;;;20.20;100.00;101783.88;5099762;28;20043;-71
2023/09/03 06:52:16;;;;;;;11.13;2.83;;;;;;;20.21;100.00;101776.50;5095725;28;20100;-71
2023/09/03 06:54:42;;;;;;;9.50;2.58;;;;;;;20.30;100.00;101792.31;5101467;28;20644;-71
2023/09/03 06:57:07;;;;;;;8.70;2.58;;;;;;;20.23;100.00;101780.69;5104827;28;20036;-71
2023/09/03 06:59:33;;;;;;;9.23;2.85;;;;;;;20.38;100.00;101800.13;5101483;28;20039;-71
2023/09/03 07:01:58;;;;;;;7.10;2.50;;;;;;;20.40;100.00;101806.19;5079451;28;20387;-71
2023/09/03 07:04:24;;;;;;;6.47;2.60;;;;;;;20.43;100.00;101810.34;5095542;28;20402;-71
2023/09/03 07:06:49;;;;;;;5.32;2.70;;;;;;;20.41;100.00;101812.47;5100654;28;20032;-71
2023/09/03 07:09:15;;;;;;;6.60;2.30;;;;;;;20.49;100.00;101814.84;5094319;28;20035;-72
2023/09/03 07:11:40;;;;;;;6.18;2.90;;;;;;;20.59;100.00;101811.50;5113727;28;20008;-72
2023/09/03 07:14:05;;;;;;;3.35;2.42;;;;;;;20.53;100.00;101810.59;5105633;28;20039;-72
2023/09/03 07:16:32;;;;;;;5.10;2.35;;;;;;;20.58;100.00;101810.69;5096047;28;20081;-71
2023/09/03 07:18:58;;;;;;;7.78;2.53;;;;;;;20.65;100.00;101821.50;5089727;28;20036;-71
2023/09/03 07:21:23;;;;;;;4.22;2.38;;;;;;;20.72;100.00;101824.09;5081272;28;20031;-72
2023/09/03 07:23:48;;;;;;;4.35;2.45;;;;;;;20.70;100.00;101826.25;5078933;28;20036;-72
2023/09/03 07:26:14;;;;;;;7.95;2.50;;;;;;;20.69;100.00;101824.56;5107608;28;20096;-72
2023/09/03 07:28:40;;;;;;;3.70;2.10;;;;;;;20.76;99.57;101825.25;5100905;28;20032;-72
2023/09/03 07:31:05;;;;;;;6.32;2.25;;;;;;;20.77;98.02;101835.97;5100596;28;20020;-72
2023/09/03 07:33:34;;;;;;;6.57;2.30;;;;;;;20.77;96.73;101830.50;5098865;28;20036;-71
2023/09/03 07:35:59;;;;;;;4.07;1.90;;;;;;;20.80;95.65;101842.88;5099460;28;20056;-71
2023/09/03 07:38:27;;;;;;;3.58;1.83;;;;;;;20.76;94.04;101828.84;5100402;28;20036;-72
2023/09/03 07:40:53;;;;;;;4.28;2.00;;;;;;;20.90;93.18;101845.81;5083050;28;20020;-72
2023/09/03 07:43:18;;;;;;;4.05;1.80;;;;;;;20.84;92.06;101849.53;5099638;28;20127;-71
2023/09/03 07:45:45;;;;;;;5.53;2.03;;;;;;;21.03;91.41;101847.44;5064163;28;20036;-72
2023/09/03 07:48:10;;;;;;;3.55;1.85;;;;;;;21.06;90.09;101853.25;5100279;28;20194;-72
2023/09/03 07:50:39;;;;;;;3.42;1.75;;;;;;;21.17;89.38;101856.19;5097328;28;20097;-71
2023/09/03 07:53:04;;;;;;;4.68;1.80;;;;;;;21.16;88.74;101857.25;5095593;28;20066;-71
2023/09/03 07:55:30;;;;;;;5.32;2.05;;;;;;;20.98;87.65;101847.31;5078479;28;20394;-71
2023/09/03 07:57:56;;;;;;;5.25;1.85;;;;;;;21.13;87.74;101861.31;5072746;28;20504;-72
2023/09/03 08:00:21;;;;;;;2.78;1.80;;;;;;;21.16;87.49;101846.28;5098103;28;20700;-72
2023/09/03 08:02:47;;;;;;;5.93;1.67;;;;;;;21.01;86.23;101866.81;5081279;28;20077;-72
2023/09/03 08:05:12;;;;;;;4.25;1.60;;;;;;;20.91;84.76;101860.31;5081347;28;20040;-72
2023/09/03 08:07:38;;;;;;;4.32;1.80;;;;;;;21.03;83.75;101869.34;5100606;28;20043;-72
2023/09/03 08:10:04;;;;;;;3.75;1.80;;;;;;;21.01;84.54;101876.94;5096678;28;20028;-71
2023/09/03 08:12:29;;;;;;;4.25;1.80;;;;;;;21.02;84.72;101882.16;5092405;28;20020;-71
2023/09/03 08:14:55;;;;;;;2.53;1.58;;;;;;;20.84;85.38;101874.97;5095522;28;20499;-72
2023/09/03 08:17:21;;;;;;;5.35;2.00;;;;;;;20.85;85.07;101886.72;5099103;28;20422;-72
2023/09/03 08:19:48;;;;;;;4.03;1.60;;;;;;;20.90;82.12;101889.59;5082757;28;20089;-72
2023/09/03 08:22:13;;;;;;;5.13;1.52;;;;;;;20.86;79.17;101894.72;5098766;28;20024;-72
2023/09/03 08:24:39;;;;;;;3.88;1.60;;;;;;;20.94;79.36;101888.03;5099602;28;20030;-72
2023/09/03 08:27:04;;;;;;;2.72;1.52;;;;;;;21.06;79.66;101888.84;5070371;28;20032;-73
2023/09/03 08:29:30;;;;;;;4.72;1.83;;;;;;;21.09;80.22;101893.81;5099099;28;20028;-73
2023/09/03 08:31:55;;;;;;;3.65;1.42;;;;;;;21.02;80.60;101889.53;5098357;28;20028;-72
2023/09/03 08:34:21;;;;;;;6.00;2.05;;;;;;;20.99;80.79;101890.88;5082604;28;20028;-72
2023/09/03 08:36:46;;;;;;;4.88;2.10;;;;;;;21.05;81.57;101909.03;5083413;28;20024;-72
2023/09/03 08:39:11;;;;;;;4.13;1.60;;;;;;;21.03;82.38;101908.47;5099850;28;20024;-76
2023/09/03 08:41:39;;;;;;;6.20;1.90;;;;;;;21.21;82.28;101917.56;5100513;28;20055;-74
2023/09/03 08:44:17;;;;;;;4.82;1.95;;;;;;;21.17;79.66;101927.34;5101941;28;20038;-74
2023/09/03 08:46:46;;;;;;;4.40;1.70;;;;;;;20.86;78.72;101902.94;5102104;28;20367;-74
2023/09/03 08:49:14;;;;;;;7.13;1.80;;;;;;;20.88;77.72;101913.63;5098785;28;20046;-73
2023/09/03 08:51:39;;;;;;;4.68;1.60;;;;;;;20.87;78.39;101931.09;5101032;28;20047;-73
2023/09/03 08:54:07;;;;;;;4.55;1.98;;;;;;;20.83;79.01;101928.03;5082064;28;20036;-73
2023/09/03 08:56:33;;;;;;;6.00;1.60;;;;;;;20.87;78.84;101934.69;5099129;28;20031;-73
2023/09/03 08:58:59;;;;;;;4.43;1.73;;;;;;;20.75;80.82;101946.69;5098934;28;20028;-73
2023/09/03 09:01:26;;;;;;;4.47;1.77;;;;;;;20.58;82.94;101932.91;5097099;28;20051;-73
2023/09/03 09:03:54;;;;;;;5.28;1.88;;;;;;;20.56;83.64;101930.44;5084935;28;20046;-73
2023/09/03 09:06:20;;;;;;;5.28;2.28;;;;;;;20.51;84.90;101921.28;5101184;28;20666;-73
2023/09/03 09:08:46;;;;;;;6.22;2.05;;;;;;;20.69;84.54;101937.53;5100031;28;20024;-73
2023/09/03 09:11:16;;;;;;;6.85;1.90;;;;;;;20.73;84.63;101938.75;5083416;28;20038;-72
2023/09/03 09:13:52;;;;;;;5.32;2.13;;;;;;;20.85;83.97;101938.72;5105456;28;20449;-73
2023/09/03 09:16:17;;;;;;;4.53;1.67;;;;;;;20.82;83.10;101934.56;5105748;28;20024;-73
2023/09/03 09:18:43;;;;;;;5.20;2.13;;;;;;;20.55;84.06;101909.59;5105516;28;20478;-73
2023/09/03 09:21:08;;;;;;;7.90;2.00;;;;;;;20.51;82.31;101933.03;5084336;28;20024;-73
2023/09/03 09:23:34;;;;;;;5.60;2.00;;;;;;;20.58;82.14;101927.44;5106213;28;20358;-73
2023/09/03 09:26:00;;;;;;;5.28;1.80;;;;;;;20.68;82.96;101946.00;5113250;28;20118;-73
2023/09/03 09:28:26;;;;;;;6.15;1.92;;;;;;;20.46;85.03;101954.75;5092975;28;20440;-73
2023/09/03 09:30:56;;;;;;;7.70;1.88;;;;;;;20.47;84.26;101956.44;5104916;28;20368;-73
2023/09/03 09:33:24;;;;;;;3.63;1.80;;;;;;;20.52;82.35;101956.56;5102799;28;20446;-73
2023/09/03 09:35:49;;;;;;;5.50;1.90;;;;;;;20.62;81.54;101954.06;5105076;28;20387;-73
2023/09/03 09:38:16;;;;;;;9.63;1.85;;;;;;;20.56;82.71;101960.50;5104896;28;20325;-73
2023/09/03 09:40:42;;;;;;;6.82;2.08;;;;;;;20.50;83.29;101950.50;5105946;28;20038;-73
2023/09/03 09:43:08;;;;;;;5.82;1.80;;;;;;;20.65;83.02;101964.53;5108457;28;20522;-73
2023/09/03 09:45:51;;;;;;;5.80;1.73;;;;;;;20.67;83.83;101968.94;5106571;28;20028;-72
2023/09/03 09:48:17;;;;;;;5.82;1.85;;;;;;;20.58;82.76;101974.75;5104405;28;20042;-73
2023/09/03 09:50:44;;;;;;;7.82;2.00;;;;;;;20.64;81.22;101962.88;5067688;28;20032;-72
2023/09/03 09:53:24;;;;;;;5.35;1.77;;;;;;;20.69;80.78;101975.00;5103861;28;20052;-72
2023/09/03 09:56:01;;;;;;;6.43;2.00;;;;;;;20.72;81.02;101980.00;5101728;28;20040;-72
2023/09/03 09:58:37;;;;;;;6.20;2.05;;;;;;;20.58;81.47;101973.94;5102318;28;20089;-73
2023/09/03 10:01:03;;;;;;;5.07;1.80;;;;;;;20.89;81.08;101980.94;5101945;28;20025;-72
2023/09/03 10:03:45;;;;;;;5.38;1.73;;;;;;;20.84;79.13;101989.03;5105328;28;20027;-72
2023/09/03 10:06:15;;;;;;;6.70;2.10;;;;;;;21.04;78.19;101992.22;5105695;28;20044;-72
2023/09/03 10:08:42;;;;;;;6.45;1.70;;;;;;;21.05;78.25;101991.16;5105669;28;20078;-73
2023/09/03 10:11:07;;;;;;;8.05;2.05;;;;;;;21.22;77.27;101993.97;5102623;28;20058;-72
2023/09/03 10:13:33;;;;;;;5.20;1.73;;;;;;;21.37;75.35;101989.94;5100192;28;20039;-72
2023/09/03 10:16:02;;;;;;;5.18;1.60;;;;;;;21.45;75.23;101998.59;5099497;28;20091;-72
2023/09/03 10:18:28;;;;;;;5.13;1.60;;;;;;;21.10;76.62;101987.69;5106850;28;20054;-72
2023/09/03 10:20:56;;;;;;;3.92;1.60;;;;;;;21.29;74.88;101993.84;5105243;28;20039;-73
2023/09/03 10:23:25;;;;;;;5.38;1.85;;;;;;;21.22;73.03;101996.69;5090164;28;20031;-72
2023/09/03 10:25:51;;;;;;;5.32;1.63;;;;;;;21.01;72.22;101989.13;5106461;28;20019;-72
2023/09/03 10:28:22;;;;;;;4.70;1.88;;;;;;;21.27;71.24;102006.94;5103060;28;20453;-72
2023/09/03 10:30:52;;;;;;;3.88;1.33;;;;;;;21.30;67.61;102011.94;5088031;28;20031;-72
2023/09/03 10:33:17;;;;;;;4.43;1.42;;;;;;;21.26;63.52;102019.81;5088922;28;20031;-72
2023/09/03 10:36:12;;;;;;;3.60;1.20;;;;;;;21.29;64.18;102022.06;5105159;28;20048;-74
2023/09/03 10:38:37;;;;;;;1.92;1.13;;;;;;;21.20;60.47;102028.16;5104047;28;20026;-74
2023/09/03 10:41:24;;;;;;;4.05;1.80;;;;;;;21.49;61.34;102029.91;5104754;28;20347;-76
2023/09/03 10:44:14;;;;;;;3.75;1.60;;;;;;;21.63;63.42;102029.63;5105586;28;20391;-73
2023/09/03 10:46:59;;;;;;;5.00;1.40;;;;;;;21.48;63.61;102028.22;5085673;28;20054;-73
2023/09/03 10:49:42;;;;;;;3.75;1.70;;;;;;;21.62;63.97;102041.63;5084448;28;20029;-74
2023/09/03 10:52:27;;;;;;;5.47;1.83;;;;;;;21.76;64.75;102035.66;5083775;28;20052;-75
2023/09/03 10:55:19;;;;;;;6.10;1.88;;;;;;;21.62;65.88;102045.22;5084590;28;20029;-76
2023/09/03 10:58:08;;;;;;;7.13;1.70;;;;;;;21.58;65.77;102044.88;5082126;28;20391;-74
2023/09/03 11:00:34;;;;;;;6.15;1.50;;;;;;;21.69;66.14;102036.84;5083375;28;20028;-74
2023/09/03 11:03:16;;;;;;;4.95;1.50;;;;;;;21.76;66.88;102034.81;5084806;28;20131;-72
2023/09/03 11:06:21;;;;;;;3.08;1.55;;;;;;;21.56;67.58;102038.00;5084466;28;20058;-74
2023/09/03 11:09:10;;;;;;;3.22;1.30;;;;;;;21.57;69.65;102047.84;5078360;28;20483;-73
2023/09/03 11:11:38;;;;;;;6.22;2.05;;;;;;;21.60;70.22;102047.38;5064278;28;20059;-73
2023/09/03 11:14:06;;;;;;;4.95;1.70;;;;;;;21.61;70.88;102048.22;5078906;28;20046;-75
2023/09/03 11:16:50;;;;;;;5.20;1.63;;;;;;;21.43;71.12;102050.03;5078326;28;20052;-73
2023/09/03 11:19:15;;;;;;;3.72;1.45;;;;;;;21.11;70.41;102044.94;5082636;28;20044;-73